sensor_id;sensor_type;location;lat;lon;timestamp;P1;durP1;ratioP1;P2;durP2;ratioP2
8421;SDS011;4248;48.196;10.924;2023-02-26T00:01:37;5.32;;;2.42;;
8421;SDS011;4248;48.196;10.924;2023-02-26T00:04:05;4.28;;;2.30;;
8421;SDS011;4248;48.196;10.924;2023-02-26T00:06:33;7.07;;;3.13;;
8421;SDS011;4248;48.196;10.924;2023-02-26T00:09:01;6.05;;;2.55;;
8421;SDS011;4248;48.196;10.924;2023-02-26T00:11:30;9.20;;;4.25;;
8421;SDS011;4248;48.196;10.924;2023-02-26T00:13:56;5.15;;;3.35;;
8421;SDS011;4248;48.196;10.924;2023-02-26T00:19:00;8.38;;;3.30;;
8421;SDS011;4248;48.196;10.924;2023-02-26T00:21:27;5.28;;;3.13;;
8421;SDS011;4248;48.196;10.924;2023-02-26T00:23:54;5.20;;;2.60;;
8421;SDS011;4248;48.196;10.924;2023-02-26T00:26:21;8.20;;;4.05;;
8421;SDS011;4248;48.196;10.924;2023-02-26T00:28:48;3.05;;;2.03;;
8421;SDS011;4248;48.196;10.924;2023-02-26T00:31:14;3.13;;;2.20;;
8421;SDS011;4248;48.196;10.924;2023-02-26T00:33:41;9.73;;;2.30;;
8421;SDS011;4248;48.196;10.924;2023-02-26T00:38:46;5.90;;;3.17;;
8421;SDS011;4248;48.196;10.924;2023-02-26T00:41:21;13.50;;;4.18;;
8421;SDS011;4248;48.196;10.924;2023-02-26T00:43:47;5.50;;;2.90;;
8421;SDS011;4248;48.196;10.924;2023-02-26T00:48:54;4.80;;;2.38;;
8421;SDS011;4248;48.196;10.924;2023-02-26T00:51:31;3.60;;;1.70;;
8421;SDS011;4248;48.196;10.924;2023-02-26T00:54:08;5.90;;;2.80;;
8421;SDS011;4248;48.196;10.924;2023-02-26T00:56:39;6.95;;;3.00;;
8421;SDS011;4248;48.196;10.924;2023-02-26T00:59:04;3.50;;;2.33;;
8421;SDS011;4248;48.196;10.924;2023-02-26T01:01:30;3.37;;;2.10;;
8421;SDS011;4248;48.196;10.924;2023-02-26T01:03:56;4.07;;;2.33;;
8421;SDS011;4248;48.196;10.924;2023-02-26T01:06:21;4.10;;;1.83;;
8421;SDS011;4248;48.196;10.924;2023-02-26T01:08:53;9.45;;;3.47;;
8421;SDS011;4248;48.196;10.924;2023-02-26T01:11:32;5.90;;;2.85;;
8421;SDS011;4248;48.196;10.924;2023-02-26T01:13:59;1.60;;;1.50;;
8421;SDS011;4248;48.196;10.924;2023-02-26T01:16:26;4.80;;;2.22;;
8421;SDS011;4248;48.196;10.924;2023-02-26T01:18:57;5.45;;;2.15;;
8421;SDS011;4248;48.196;10.924;2023-02-26T01:21:30;1.45;;;1.17;;
8421;SDS011;4248;48.196;10.924;2023-02-26T01:24:00;2.72;;;1.77;;
8421;SDS011;4248;48.196;10.924;2023-02-26T01:26:29;3.55;;;2.17;;
8421;SDS011;4248;48.196;10.924;2023-02-26T01:28:55;3.47;;;1.40;;
8421;SDS011;4248;48.196;10.924;2023-02-26T01:34:17;3.75;;;1.88;;
8421;SDS011;4248;48.196;10.924;2023-02-26T01:36:51;1.70;;;1.50;;
8421;SDS011;4248;48.196;10.924;2023-02-26T01:39:38;2.50;;;1.83;;
8421;SDS011;4248;48.196;10.924;2023-02-26T01:44:40;4.27;;;1.80;;
8421;SDS011;4248;48.196;10.924;2023-02-26T01:47:15;3.85;;;1.95;;
8421;SDS011;4248;48.196;10.924;2023-02-26T01:49:47;6.45;;;1.65;;
8421;SDS011;4248;48.196;10.924;2023-02-26T01:55:07;2.00;;;1.50;;
8421;SDS011;4248;48.196;10.924;2023-02-26T01:57:33;3.40;;;2.20;;
8421;SDS011;4248;48.196;10.924;2023-02-26T01:59:59;3.10;;;1.67;;
8421;SDS011;4248;48.196;10.924;2023-02-26T02:02:24;6.80;;;1.70;;
8421;SDS011;4248;48.196;10.924;2023-02-26T02:04:51;1.95;;;1.42;;
8421;SDS011;4248;48.196;10.924;2023-02-26T02:07:17;3.38;;;1.30;;
8421;SDS011;4248;48.196;10.924;2023-02-26T02:09:43;2.00;;;1.40;;
8421;SDS011;4248;48.196;10.924;2023-02-26T02:12:17;2.50;;;1.70;;
8421;SDS011;4248;48.196;10.924;2023-02-26T02:31:17;2.42;;;1.70;;
8421;SDS011;4248;48.196;10.924;2023-02-26T02:33:52;2.35;;;1.65;;
8421;SDS011;4248;48.196;10.924;2023-02-26T02:37:15;1.85;;;1.20;;
8421;SDS011;4248;48.196;10.924;2023-02-26T02:39:18;2.20;;;1.60;;
8421;SDS011;4248;48.196;10.924;2023-02-26T02:42:06;3.28;;;2.00;;
8421;SDS011;4248;48.196;10.924;2023-02-26T02:44:39;3.00;;;2.00;;
8421;SDS011;4248;48.196;10.924;2023-02-26T02:47:10;3.05;;;1.55;;
8421;SDS011;4248;48.196;10.924;2023-02-26T02:49:41;7.00;;;2.05;;
8421;SDS011;4248;48.196;10.924;2023-02-26T02:54:46;3.40;;;1.90;;
8421;SDS011;4248;48.196;10.924;2023-02-26T02:57:20;1.88;;;1.20;;
8421;SDS011;4248;48.196;10.924;2023-02-26T02:59:51;4.70;;;1.85;;
8421;SDS011;4248;48.196;10.924;2023-02-26T03:05:08;2.47;;;1.55;;
8421;SDS011;4248;48.196;10.924;2023-02-26T03:07:35;5.35;;;1.60;;
8421;SDS011;4248;48.196;10.924;2023-02-26T03:10:06;1.90;;;1.30;;
8421;SDS011;4248;48.196;10.924;2023-02-26T03:12:32;2.70;;;1.48;;
8421;SDS011;4248;48.196;10.924;2023-02-26T03:14:58;5.33;;;1.30;;
8421;SDS011;4248;48.196;10.924;2023-02-26T03:28:30;5.70;;;1.30;;
8421;SDS011;4248;48.196;10.924;2023-02-26T03:31:14;3.40;;;1.20;;
8421;SDS011;4248;48.196;10.924;2023-02-26T03:37:12;2.47;;;1.33;;
8421;SDS011;4248;48.196;10.924;2023-02-26T03:42:05;2.95;;;1.60;;
8421;SDS011;4248;48.196;10.924;2023-02-26T03:44:49;3.63;;;1.70;;
8421;SDS011;4248;48.196;10.924;2023-02-26T03:47:17;2.30;;;1.38;;
8421;SDS011;4248;48.196;10.924;2023-02-26T03:52:11;9.38;;;1.75;;
8421;SDS011;4248;48.196;10.924;2023-02-26T03:54:42;2.42;;;1.55;;
8421;SDS011;4248;48.196;10.924;2023-02-26T03:57:20;3.97;;;1.40;;
8421;SDS011;4248;48.196;10.924;2023-02-26T03:59:46;5.43;;;1.63;;
8421;SDS011;4248;48.196;10.924;2023-02-26T04:02:16;5.07;;;2.03;;
8421;SDS011;4248;48.196;10.924;2023-02-26T04:04:49;4.07;;;1.40;;
8421;SDS011;4248;48.196;10.924;2023-02-26T04:07:18;3.20;;;1.60;;
8421;SDS011;4248;48.196;10.924;2023-02-26T04:09:46;2.33;;;1.30;;
8421;SDS011;4248;48.196;10.924;2023-02-26T04:12:13;2.75;;;1.50;;
8421;SDS011;4248;48.196;10.924;2023-02-26T04:14:39;3.83;;;1.37;;
8421;SDS011;4248;48.196;10.924;2023-02-26T04:17:05;4.10;;;1.47;;
8421;SDS011;4248;48.196;10.924;2023-02-26T04:19:31;1.73;;;1.43;;
8421;SDS011;4248;48.196;10.924;2023-02-26T04:21:56;7.80;;;1.50;;
8421;SDS011;4248;48.196;10.924;2023-02-26T04:24:22;4.00;;;1.40;;
8421;SDS011;4248;48.196;10.924;2023-02-26T04:26:48;2.80;;;1.83;;
8421;SDS011;4248;48.196;10.924;2023-02-26T04:29:14;2.93;;;2.07;;
8421;SDS011;4248;48.196;10.924;2023-02-26T04:31:40;4.93;;;1.70;;
8421;SDS011;4248;48.196;10.924;2023-02-26T04:34:05;6.53;;;1.70;;
8421;SDS011;4248;48.196;10.924;2023-02-26T04:36:31;5.00;;;1.40;;
8421;SDS011;4248;48.196;10.924;2023-02-26T04:38:57;3.70;;;1.53;;
8421;SDS011;4248;48.196;10.924;2023-02-26T04:41:23;4.97;;;1.50;;
8421;SDS011;4248;48.196;10.924;2023-02-26T04:43:48;3.90;;;1.60;;
8421;SDS011;4248;48.196;10.924;2023-02-26T04:46:14;2.30;;;1.20;;
8421;SDS011;4248;48.196;10.924;2023-02-26T04:48:40;7.33;;;1.33;;
8421;SDS011;4248;48.196;10.924;2023-02-26T04:51:05;3.73;;;2.00;;
8421;SDS011;4248;48.196;10.924;2023-02-26T04:53:31;4.83;;;1.70;;
8421;SDS011;4248;48.196;10.924;2023-02-26T04:55:57;6.73;;;1.83;;
8421;SDS011;4248;48.196;10.924;2023-02-26T04:58:22;3.33;;;1.87;;
8421;SDS011;4248;48.196;10.924;2023-02-26T05:00:49;2.60;;;1.40;;
8421;SDS011;4248;48.196;10.924;2023-02-26T05:03:15;1.77;;;1.40;;
8421;SDS011;4248;48.196;10.924;2023-02-26T05:05:42;3.15;;;1.63;;
8421;SDS011;4248;48.196;10.924;2023-02-26T05:08:08;3.10;;;1.60;;
8421;SDS011;4248;48.196;10.924;2023-02-26T05:10:34;3.30;;;1.30;;
8421;SDS011;4248;48.196;10.924;2023-02-26T05:12:59;6.40;;;1.50;;
8421;SDS011;4248;48.196;10.924;2023-02-26T05:15:25;3.10;;;1.63;;
8421;SDS011;4248;48.196;10.924;2023-02-26T05:17:50;1.90;;;1.57;;
8421;SDS011;4248;48.196;10.924;2023-02-26T05:20:16;3.97;;;1.70;;
8421;SDS011;4248;48.196;10.924;2023-02-26T05:22:42;4.90;;;1.33;;
8421;SDS011;4248;48.196;10.924;2023-02-26T05:25:08;3.27;;;1.70;;
8421;SDS011;4248;48.196;10.924;2023-02-26T05:27:36;10.93;;;1.98;;
8421;SDS011;4248;48.196;10.924;2023-02-26T05:30:02;4.53;;;1.95;;
8421;SDS011;4248;48.196;10.924;2023-02-26T05:32:28;3.53;;;1.45;;
8421;SDS011;4248;48.196;10.924;2023-02-26T05:34:54;4.80;;;1.50;;
8421;SDS011;4248;48.196;10.924;2023-02-26T05:37:19;7.10;;;1.50;;
8421;SDS011;4248;48.196;10.924;2023-02-26T05:39:45;3.23;;;1.53;;
8421;SDS011;4248;48.196;10.924;2023-02-26T05:42:11;2.87;;;1.60;;
8421;SDS011;4248;48.196;10.924;2023-02-26T05:44:36;2.13;;;1.53;;
8421;SDS011;4248;48.196;10.924;2023-02-26T05:47:02;3.87;;;1.90;;
8421;SDS011;4248;48.196;10.924;2023-02-26T05:49:27;8.23;;;2.13;;
8421;SDS011;4248;48.196;10.924;2023-02-26T05:51:53;2.90;;;1.63;;
8421;SDS011;4248;48.196;10.924;2023-02-26T05:54:19;3.07;;;1.73;;
8421;SDS011;4248;48.196;10.924;2023-02-26T05:56:44;3.93;;;1.43;;
8421;SDS011;4248;48.196;10.924;2023-02-26T05:59:10;2.67;;;1.63;;
8421;SDS011;4248;48.196;10.924;2023-02-26T06:01:36;2.60;;;1.93;;
8421;SDS011;4248;48.196;10.924;2023-02-26T06:04:02;3.55;;;1.98;;
8421;SDS011;4248;48.196;10.924;2023-02-26T06:06:29;4.97;;;2.05;;
8421;SDS011;4248;48.196;10.924;2023-02-26T06:08:55;4.53;;;2.30;;
8421;SDS011;4248;48.196;10.924;2023-02-26T06:11:20;5.10;;;2.03;;
8421;SDS011;4248;48.196;10.924;2023-02-26T06:13:47;2.40;;;2.00;;
8421;SDS011;4248;48.196;10.924;2023-02-26T06:16:13;7.22;;;2.08;;
8421;SDS011;4248;48.196;10.924;2023-02-26T06:18:39;4.80;;;2.10;;
8421;SDS011;4248;48.196;10.924;2023-02-26T06:21:04;2.47;;;2.00;;
8421;SDS011;4248;48.196;10.924;2023-02-26T06:23:30;3.93;;;1.83;;
8421;SDS011;4248;48.196;10.924;2023-02-26T06:25:58;5.00;;;2.88;;
8421;SDS011;4248;48.196;10.924;2023-02-26T06:28:24;4.20;;;2.23;;
8421;SDS011;4248;48.196;10.924;2023-02-26T06:30:53;7.32;;;2.40;;
8421;SDS011;4248;48.196;10.924;2023-02-26T06:33:19;4.20;;;2.17;;
8421;SDS011;4248;48.196;10.924;2023-02-26T06:35:45;3.80;;;2.22;;
8421;SDS011;4248;48.196;10.924;2023-02-26T06:38:11;4.63;;;1.80;;
8421;SDS011;4248;48.196;10.924;2023-02-26T06:40:36;3.37;;;1.60;;
8421;SDS011;4248;48.196;10.924;2023-02-26T06:43:02;5.03;;;1.87;;
8421;SDS011;4248;48.196;10.924;2023-02-26T06:45:28;2.27;;;1.40;;
8421;SDS011;4248;48.196;10.924;2023-02-26T06:47:53;2.10;;;1.50;;
8421;SDS011;4248;48.196;10.924;2023-02-26T06:50:19;5.10;;;2.03;;
8421;SDS011;4248;48.196;10.924;2023-02-26T06:52:45;3.15;;;1.70;;
8421;SDS011;4248;48.196;10.924;2023-02-26T06:55:11;2.77;;;1.70;;
8421;SDS011;4248;48.196;10.924;2023-02-26T06:57:36;1.83;;;1.63;;
8421;SDS011;4248;48.196;10.924;2023-02-26T07:00:03;2.67;;;1.80;;
8421;SDS011;4248;48.196;10.924;2023-02-26T07:02:29;9.18;;;2.22;;
8421;SDS011;4248;48.196;10.924;2023-02-26T07:04:55;2.83;;;1.67;;
8421;SDS011;4248;48.196;10.924;2023-02-26T07:07:21;2.13;;;1.60;;
8421;SDS011;4248;48.196;10.924;2023-02-26T07:09:46;6.47;;;2.20;;
8421;SDS011;4248;48.196;10.924;2023-02-26T07:12:12;3.17;;;2.17;;
8421;SDS011;4248;48.196;10.924;2023-02-26T07:14:38;3.87;;;2.00;;
8421;SDS011;4248;48.196;10.924;2023-02-26T07:17:04;1.67;;;1.50;;
8421;SDS011;4248;48.196;10.924;2023-02-26T07:19:30;4.23;;;2.27;;
8421;SDS011;4248;48.196;10.924;2023-02-26T07:21:55;3.30;;;1.60;;
8421;SDS011;4248;48.196;10.924;2023-02-26T07:24:21;5.57;;;2.40;;
8421;SDS011;4248;48.196;10.924;2023-02-26T07:26:47;4.65;;;2.65;;
8421;SDS011;4248;48.196;10.924;2023-02-26T07:29:13;5.60;;;2.53;;
8421;SDS011;4248;48.196;10.924;2023-02-26T07:31:39;3.20;;;1.90;;
8421;SDS011;4248;48.196;10.924;2023-02-26T07:34:04;6.00;;;3.73;;
8421;SDS011;4248;48.196;10.924;2023-02-26T07:36:30;5.93;;;2.00;;
8421;SDS011;4248;48.196;10.924;2023-02-26T07:38:56;5.15;;;2.85;;
8421;SDS011;4248;48.196;10.924;2023-02-26T07:41:22;4.17;;;2.10;;
8421;SDS011;4248;48.196;10.924;2023-02-26T07:43:47;3.83;;;2.03;;
8421;SDS011;4248;48.196;10.924;2023-02-26T07:46:14;10.20;;;2.88;;
8421;SDS011;4248;48.196;10.924;2023-02-26T07:48:40;5.10;;;2.53;;
8421;SDS011;4248;48.196;10.924;2023-02-26T07:51:05;8.57;;;3.60;;
8421;SDS011;4248;48.196;10.924;2023-02-26T07:53:32;5.63;;;2.30;;
8421;SDS011;4248;48.196;10.924;2023-02-26T07:55:57;6.22;;;2.35;;
8421;SDS011;4248;48.196;10.924;2023-02-26T07:58:23;5.00;;;1.90;;
8421;SDS011;4248;48.196;10.924;2023-02-26T08:00:49;6.47;;;3.77;;
8421;SDS011;4248;48.196;10.924;2023-02-26T08:03:16;4.45;;;2.40;;
8421;SDS011;4248;48.196;10.924;2023-02-26T08:05:42;3.92;;;2.58;;
8421;SDS011;4248;48.196;10.924;2023-02-26T08:08:08;2.40;;;1.93;;
8421;SDS011;4248;48.196;10.924;2023-02-26T08:10:34;4.10;;;2.40;;
8421;SDS011;4248;48.196;10.924;2023-02-26T08:13:00;3.40;;;2.00;;
8421;SDS011;4248;48.196;10.924;2023-02-26T08:15:25;3.83;;;1.70;;
8421;SDS011;4248;48.196;10.924;2023-02-26T08:17:51;8.40;;;2.40;;
8421;SDS011;4248;48.196;10.924;2023-02-26T08:20:17;7.70;;;3.08;;
8421;SDS011;4248;48.196;10.924;2023-02-26T08:22:43;4.93;;;2.50;;
8421;SDS011;4248;48.196;10.924;2023-02-26T08:25:09;2.70;;;2.07;;
8421;SDS011;4248;48.196;10.924;2023-02-26T08:27:35;3.60;;;2.03;;
8421;SDS011;4248;48.196;10.924;2023-02-26T08:30:01;2.50;;;1.80;;
8421;SDS011;4248;48.196;10.924;2023-02-26T08:32:27;3.63;;;1.70;;
8421;SDS011;4248;48.196;10.924;2023-02-26T08:34:53;2.87;;;2.10;;
8421;SDS011;4248;48.196;10.924;2023-02-26T08:37:19;2.40;;;1.60;;
8421;SDS011;4248;48.196;10.924;2023-02-26T08:39:47;3.97;;;2.33;;
8421;SDS011;4248;48.196;10.924;2023-02-26T08:42:13;2.77;;;1.47;;
8421;SDS011;4248;48.196;10.924;2023-02-26T08:44:40;3.33;;;1.85;;
8421;SDS011;4248;48.196;10.924;2023-02-26T08:47:06;3.67;;;2.10;;
8421;SDS011;4248;48.196;10.924;2023-02-26T08:49:32;3.53;;;2.20;;
8421;SDS011;4248;48.196;10.924;2023-02-26T08:51:58;5.20;;;2.53;;
8421;SDS011;4248;48.196;10.924;2023-02-26T08:54:24;3.00;;;2.30;;
8421;SDS011;4248;48.196;10.924;2023-02-26T08:56:49;4.77;;;2.30;;
8421;SDS011;4248;48.196;10.924;2023-02-26T08:59:17;4.60;;;2.88;;
8421;SDS011;4248;48.196;10.924;2023-02-26T09:01:43;4.23;;;1.97;;
8421;SDS011;4248;48.196;10.924;2023-02-26T09:04:08;4.40;;;2.40;;
8421;SDS011;4248;48.196;10.924;2023-02-26T09:06:34;4.13;;;2.30;;
8421;SDS011;4248;48.196;10.924;2023-02-26T09:09:00;3.50;;;1.63;;
8421;SDS011;4248;48.196;10.924;2023-02-26T09:11:25;4.60;;;2.20;;
8421;SDS011;4248;48.196;10.924;2023-02-26T09:13:54;2.85;;;1.90;;
8421;SDS011;4248;48.196;10.924;2023-02-26T09:16:20;2.38;;;1.73;;
8421;SDS011;4248;48.196;10.924;2023-02-26T09:18:46;2.73;;;1.77;;
8421;SDS011;4248;48.196;10.924;2023-02-26T09:21:11;1.57;;;1.30;;
8421;SDS011;4248;48.196;10.924;2023-02-26T09:23:37;4.83;;;2.23;;
8421;SDS011;4248;48.196;10.924;2023-02-26T09:26:02;3.70;;;2.20;;
8421;SDS011;4248;48.196;10.924;2023-02-26T09:28:28;2.33;;;1.70;;
8421;SDS011;4248;48.196;10.924;2023-02-26T09:30:54;2.90;;;1.87;;
8421;SDS011;4248;48.196;10.924;2023-02-26T09:33:20;6.00;;;3.00;;
8421;SDS011;4248;48.196;10.924;2023-02-26T09:35:47;3.75;;;2.40;;
8421;SDS011;4248;48.196;10.924;2023-02-26T09:38:13;5.43;;;2.53;;
8421;SDS011;4248;48.196;10.924;2023-02-26T09:45:45;6.65;;;2.92;;
8421;SDS011;4248;48.196;10.924;2023-02-26T09:48:14;4.80;;;2.60;;
8421;SDS011;4248;48.196;10.924;2023-02-26T09:50:44;8.23;;;3.40;;
8421;SDS011;4248;48.196;10.924;2023-02-26T09:53:21;5.20;;;2.78;;
8421;SDS011;4248;48.196;10.924;2023-02-26T09:55:57;2.92;;;1.95;;
8421;SDS011;4248;48.196;10.924;2023-02-26T09:58:31;4.03;;;2.38;;
8421;SDS011;4248;48.196;10.924;2023-02-26T10:01:02;4.57;;;2.40;;
8421;SDS011;4248;48.196;10.924;2023-02-26T10:06:21;5.80;;;2.80;;
8421;SDS011;4248;48.196;10.924;2023-02-26T10:11:29;7.07;;;3.20;;
8421;SDS011;4248;48.196;10.924;2023-02-26T10:14:11;3.85;;;2.45;;
8421;SDS011;4248;48.196;10.924;2023-02-26T10:16:44;4.45;;;2.40;;
8421;SDS011;4248;48.196;10.924;2023-02-26T10:19:15;7.18;;;3.53;;
8421;SDS011;4248;48.196;10.924;2023-02-26T10:21:48;4.38;;;2.35;;
8421;SDS011;4248;48.196;10.924;2023-02-26T10:24:25;4.97;;;3.22;;
8421;SDS011;4248;48.196;10.924;2023-02-26T10:26:57;3.67;;;2.50;;
8421;SDS011;4248;48.196;10.924;2023-02-26T10:29:44;5.50;;;2.53;;
8421;SDS011;4248;48.196;10.924;2023-02-26T10:32:27;6.05;;;2.80;;
8421;SDS011;4248;48.196;10.924;2023-02-26T10:34:59;2.70;;;2.25;;
8421;SDS011;4248;48.196;10.924;2023-02-26T10:37:51;2.70;;;2.00;;
8421;SDS011;4248;48.196;10.924;2023-02-26T10:40:38;2.70;;;2.20;;
8421;SDS011;4248;48.196;10.924;2023-02-26T10:46:01;2.95;;;2.15;;
8421;SDS011;4248;48.196;10.924;2023-02-26T10:51:46;3.30;;;2.60;;
8421;SDS011;4248;48.196;10.924;2023-02-26T10:57:02;2.70;;;2.15;;
8421;SDS011;4248;48.196;10.924;2023-02-26T10:59:28;2.63;;;2.13;;
8421;SDS011;4248;48.196;10.924;2023-02-26T11:01:55;7.00;;;4.38;;
8421;SDS011;4248;48.196;10.924;2023-02-26T11:04:21;6.85;;;2.22;;
8421;SDS011;4248;48.196;10.924;2023-02-26T11:06:51;2.60;;;2.08;;
8421;SDS011;4248;48.196;10.924;2023-02-26T11:09:36;3.95;;;2.30;;
8421;SDS011;4248;48.196;10.924;2023-02-26T11:12:11;13.18;;;6.68;;
8421;SDS011;4248;48.196;10.924;2023-02-26T11:14:42;22.67;;;11.23;;
8421;SDS011;4248;48.196;10.924;2023-02-26T11:17:13;31.52;;;13.05;;
8421;SDS011;4248;48.196;10.924;2023-02-26T11:19:51;7.85;;;3.70;;
8421;SDS011;4248;48.196;10.924;2023-02-26T11:22:21;4.50;;;3.22;;
8421;SDS011;4248;48.196;10.924;2023-02-26T11:24:51;4.60;;;2.70;;
8421;SDS011;4248;48.196;10.924;2023-02-26T11:27:24;4.82;;;2.47;;
8421;SDS011;4248;48.196;10.924;2023-02-26T11:29:57;8.57;;;4.70;;
8421;SDS011;4248;48.196;10.924;2023-02-26T11:32:34;3.20;;;2.30;;
8421;SDS011;4248;48.196;10.924;2023-02-26T11:35:01;3.58;;;2.22;;
8421;SDS011;4248;48.196;10.924;2023-02-26T11:37:33;4.55;;;2.40;;
8421;SDS011;4248;48.196;10.924;2023-02-26T11:40:13;3.72;;;2.40;;
8421;SDS011;4248;48.196;10.924;2023-02-26T11:43:14;3.03;;;1.95;;
8421;SDS011;4248;48.196;10.924;2023-02-26T11:45:45;2.78;;;2.20;;
8421;SDS011;4248;48.196;10.924;2023-02-26T11:48:18;2.70;;;2.15;;
8421;SDS011;4248;48.196;10.924;2023-02-26T11:50:51;2.03;;;1.77;;
8421;SDS011;4248;48.196;10.924;2023-02-26T11:53:24;2.40;;;1.80;;
8421;SDS011;4248;48.196;10.924;2023-02-26T11:55:59;1.63;;;1.42;;
8421;SDS011;4248;48.196;10.924;2023-02-26T11:58:34;3.42;;;1.83;;
8421;SDS011;4248;48.196;10.924;2023-02-26T12:01:01;3.08;;;1.70;;
8421;SDS011;4248;48.196;10.924;2023-02-26T12:03:31;2.83;;;1.95;;
8421;SDS011;4248;48.196;10.924;2023-02-26T12:06:00;2.38;;;1.95;;
8421;SDS011;4248;48.196;10.924;2023-02-26T12:10:58;2.07;;;1.57;;
8421;SDS011;4248;48.196;10.924;2023-02-26T12:16:18;4.00;;;1.90;;
8421;SDS011;4248;48.196;10.924;2023-02-26T12:32:30;3.58;;;1.80;;
8421;SDS011;4248;48.196;10.924;2023-02-26T12:35:14;1.63;;;1.10;;
8421;SDS011;4248;48.196;10.924;2023-02-26T12:43:23;2.10;;;1.50;;
8421;SDS011;4248;48.196;10.924;2023-02-26T13:04:59;2.10;;;1.40;;
8421;SDS011;4248;48.196;10.924;2023-02-26T13:10:35;3.25;;;1.77;;
8421;SDS011;4248;48.196;10.924;2023-02-26T13:13:42;2.25;;;1.60;;
8421;SDS011;4248;48.196;10.924;2023-02-26T13:16:34;2.75;;;1.70;;
8421;SDS011;4248;48.196;10.924;2023-02-26T13:21:44;2.05;;;1.20;;
8421;SDS011;4248;48.196;10.924;2023-02-26T13:24:16;2.42;;;2.00;;
8421;SDS011;4248;48.196;10.924;2023-02-26T13:26:47;1.55;;;1.20;;
8421;SDS011;4248;48.196;10.924;2023-02-26T13:29:15;1.98;;;1.30;;
8421;SDS011;4248;48.196;10.924;2023-02-26T13:32:04;2.72;;;1.73;;
8421;SDS011;4248;48.196;10.924;2023-02-26T13:37:23;4.38;;;2.22;;
8421;SDS011;4248;48.196;10.924;2023-02-26T13:40:00;4.05;;;2.45;;
8421;SDS011;4248;48.196;10.924;2023-02-26T13:53:47;3.22;;;2.00;;
8421;SDS011;4248;48.196;10.924;2023-02-26T13:55:50;3.33;;;1.77;;
8421;SDS011;4248;48.196;10.924;2023-02-26T14:00:46;2.60;;;1.90;;
8421;SDS011;4248;48.196;10.924;2023-02-26T14:08:54;3.53;;;2.10;;
8421;SDS011;4248;48.196;10.924;2023-02-26T14:11:25;4.00;;;1.50;;
8421;SDS011;4248;48.196;10.924;2023-02-26T14:14:16;3.65;;;2.35;;
8421;SDS011;4248;48.196;10.924;2023-02-26T14:28:16;4.15;;;1.60;;
8421;SDS011;4248;48.196;10.924;2023-02-26T14:30:46;2.88;;;1.67;;
8421;SDS011;4248;48.196;10.924;2023-02-26T14:33:14;2.20;;;1.42;;
8421;SDS011;4248;48.196;10.924;2023-02-26T14:35:43;4.45;;;2.42;;
8421;SDS011;4248;48.196;10.924;2023-02-26T14:38:19;3.85;;;2.25;;
8421;SDS011;4248;48.196;10.924;2023-02-26T14:40:53;3.00;;;1.67;;
8421;SDS011;4248;48.196;10.924;2023-02-26T14:43:36;3.17;;;1.70;;
8421;SDS011;4248;48.196;10.924;2023-02-26T14:46:04;3.33;;;1.88;;
8421;SDS011;4248;48.196;10.924;2023-02-26T14:48:32;2.70;;;1.77;;
8421;SDS011;4248;48.196;10.924;2023-02-26T14:58:44;2.00;;;1.58;;
8421;SDS011;4248;48.196;10.924;2023-02-26T15:09:05;2.70;;;1.73;;
8421;SDS011;4248;48.196;10.924;2023-02-26T15:24:57;2.15;;;1.50;;
8421;SDS011;4248;48.196;10.924;2023-02-26T15:27:25;2.85;;;1.60;;
8421;SDS011;4248;48.196;10.924;2023-02-26T15:29:53;2.55;;;1.60;;
8421;SDS011;4248;48.196;10.924;2023-02-26T15:32:29;1.80;;;1.40;;
8421;SDS011;4248;48.196;10.924;2023-02-26T15:35:00;1.95;;;1.13;;
8421;SDS011;4248;48.196;10.924;2023-02-26T15:37:31;3.00;;;1.20;;
8421;SDS011;4248;48.196;10.924;2023-02-26T15:39:59;4.70;;;1.67;;
8421;SDS011;4248;48.196;10.924;2023-02-26T15:42:31;16.95;;;7.30;;
8421;SDS011;4248;48.196;10.924;2023-02-26T15:45:02;7.30;;;3.67;;
8421;SDS011;4248;48.196;10.924;2023-02-26T15:47:38;5.20;;;2.78;;
8421;SDS011;4248;48.196;10.924;2023-02-26T15:50:04;2.58;;;1.60;;
8421;SDS011;4248;48.196;10.924;2023-02-26T15:52:30;2.97;;;1.63;;
8421;SDS011;4248;48.196;10.924;2023-02-26T15:54:58;4.93;;;2.60;;
8421;SDS011;4248;48.196;10.924;2023-02-26T15:57:27;3.50;;;2.10;;
8421;SDS011;4248;48.196;10.924;2023-02-26T15:59:59;2.30;;;1.70;;
8421;SDS011;4248;48.196;10.924;2023-02-26T16:02:31;2.90;;;1.65;;
8421;SDS011;4248;48.196;10.924;2023-02-26T16:04:56;2.30;;;1.60;;
8421;SDS011;4248;48.196;10.924;2023-02-26T16:07:22;2.87;;;2.07;;
8421;SDS011;4248;48.196;10.924;2023-02-26T16:09:49;4.03;;;2.10;;
8421;SDS011;4248;48.196;10.924;2023-02-26T16:14:59;2.28;;;1.70;;
8421;SDS011;4248;48.196;10.924;2023-02-26T16:17:29;4.70;;;1.70;;
8421;SDS011;4248;48.196;10.924;2023-02-26T16:19:58;2.88;;;1.98;;
8421;SDS011;4248;48.196;10.924;2023-02-26T16:22:35;2.40;;;1.63;;
8421;SDS011;4248;48.196;10.924;2023-02-26T16:27:37;2.92;;;1.90;;
8421;SDS011;4248;48.196;10.924;2023-02-26T16:30:04;3.50;;;1.90;;
8421;SDS011;4248;48.196;10.924;2023-02-26T16:32:32;4.22;;;2.00;;
8421;SDS011;4248;48.196;10.924;2023-02-26T16:35:00;3.75;;;2.03;;
8421;SDS011;4248;48.196;10.924;2023-02-26T16:37:42;4.30;;;2.35;;
8421;SDS011;4248;48.196;10.924;2023-02-26T16:46:02;5.50;;;2.95;;
8421;SDS011;4248;48.196;10.924;2023-02-26T16:48:04;7.63;;;3.35;;
8421;SDS011;4248;48.196;10.924;2023-02-26T16:50:41;2.13;;;1.45;;
8421;SDS011;4248;48.196;10.924;2023-02-26T16:53:08;1.45;;;1.08;;
8421;SDS011;4248;48.196;10.924;2023-02-26T16:55:41;2.15;;;1.40;;
8421;SDS011;4248;48.196;10.924;2023-02-26T16:58:13;2.65;;;1.45;;
8421;SDS011;4248;48.196;10.924;2023-02-26T17:00:42;2.95;;;2.20;;
8421;SDS011;4248;48.196;10.924;2023-02-26T17:08:14;4.07;;;2.55;;
8421;SDS011;4248;48.196;10.924;2023-02-26T17:10:46;4.25;;;3.05;;
8421;SDS011;4248;48.196;10.924;2023-02-26T17:13:24;3.88;;;2.15;;
8421;SDS011;4248;48.196;10.924;2023-02-26T17:15:52;5.70;;;2.67;;
8421;SDS011;4248;48.196;10.924;2023-02-26T17:18:18;5.53;;;2.80;;
8421;SDS011;4248;48.196;10.924;2023-02-26T17:20:45;4.18;;;2.00;;
8421;SDS011;4248;48.196;10.924;2023-02-26T17:23:15;4.13;;;2.27;;
8421;SDS011;4248;48.196;10.924;2023-02-26T17:25:46;7.82;;;2.45;;
8421;SDS011;4248;48.196;10.924;2023-02-26T17:28:16;4.03;;;2.10;;
8421;SDS011;4248;48.196;10.924;2023-02-26T17:30:48;4.47;;;2.15;;
8421;SDS011;4248;48.196;10.924;2023-02-26T17:33:13;3.90;;;2.80;;
8421;SDS011;4248;48.196;10.924;2023-02-26T17:35:39;2.90;;;2.03;;
8421;SDS011;4248;48.196;10.924;2023-02-26T17:38:07;2.50;;;2.03;;
8421;SDS011;4248;48.196;10.924;2023-02-26T17:40:37;2.38;;;1.70;;
8421;SDS011;4248;48.196;10.924;2023-02-26T17:43:03;4.10;;;2.55;;
8421;SDS011;4248;48.196;10.924;2023-02-26T17:45:30;3.45;;;1.58;;
8421;SDS011;4248;48.196;10.924;2023-02-26T17:47:57;3.75;;;1.80;;
8421;SDS011;4248;48.196;10.924;2023-02-26T17:50:25;2.80;;;1.73;;
8421;SDS011;4248;48.196;10.924;2023-02-26T17:53:11;9.73;;;2.10;;
8421;SDS011;4248;48.196;10.924;2023-02-26T17:55:37;4.53;;;2.33;;
8421;SDS011;4248;48.196;10.924;2023-02-26T17:58:04;4.50;;;2.80;;
8421;SDS011;4248;48.196;10.924;2023-02-26T18:00:31;4.72;;;1.92;;
8421;SDS011;4248;48.196;10.924;2023-02-26T18:02:58;3.13;;;1.98;;
8421;SDS011;4248;48.196;10.924;2023-02-26T18:05:24;4.43;;;2.42;;
8421;SDS011;4248;48.196;10.924;2023-02-26T18:07:51;3.53;;;2.50;;
8421;SDS011;4248;48.196;10.924;2023-02-26T18:10:19;4.72;;;2.25;;
8421;SDS011;4248;48.196;10.924;2023-02-26T18:12:46;5.57;;;2.63;;
8421;SDS011;4248;48.196;10.924;2023-02-26T18:15:12;5.53;;;3.07;;
8421;SDS011;4248;48.196;10.924;2023-02-26T18:17:38;3.90;;;2.47;;
8421;SDS011;4248;48.196;10.924;2023-02-26T18:20:04;9.00;;;3.40;;
8421;SDS011;4248;48.196;10.924;2023-02-26T18:22:31;8.40;;;4.38;;
8421;SDS011;4248;48.196;10.924;2023-02-26T18:24:57;4.40;;;2.77;;
8421;SDS011;4248;48.196;10.924;2023-02-26T18:27:23;6.40;;;3.17;;
8421;SDS011;4248;48.196;10.924;2023-02-26T18:29:50;4.80;;;2.50;;
8421;SDS011;4248;48.196;10.924;2023-02-26T18:32:17;5.68;;;2.80;;
8421;SDS011;4248;48.196;10.924;2023-02-26T18:34:45;3.53;;;2.30;;
8421;SDS011;4248;48.196;10.924;2023-02-26T18:37:11;3.17;;;2.07;;